Time;durP1;ratioP1;P1;durP2;ratioP2;P2;SDS_P1;SDS_P2;PMS_P1;PMS_P2;Temp;Humidity;BMP_temperature;BMP_pressure;BME280_temperature;BME280_humidity;BME280_pressure;Samples;Min_cycle;Max_cycle;Signal;HPM_P1;HPM_P2
2021/10/04 00:01:22;;;;;;;3.75;2.47;;;;;;;21.36;53.43;101034.06;5065035;28;20047;-70
2021/10/04 00:03:47;;;;;;;4.45;2.50;;;;;;;21.33;53.55;101039.72;5065936;28;21037;-70
2021/10/04 00:06:13;;;;;;;3.72;2.83;;;;;;;21.38;53.38;101044.47;5066125;28;20036;-69
2021/10/04 00:08:39;;;;;;;4.93;2.90;;;;;;;21.35;53.42;101042.19;5065757;28;20209;-70
2021/10/04 00:11:04;;;;;;;5.05;2.60;;;;;;;21.32;53.41;101047.84;5068558;28;20790;-70
2021/10/04 00:13:30;;;;;;;4.40;2.53;;;;;;;21.33;53.36;101057.44;5067489;28;20089;-70
2021/10/04 00:15:58;;;;;;;3.75;2.20;;;;;;;21.33;53.22;101055.59;5066822;28;20110;-70
2021/10/04 00:18:24;;;;;;;3.55;2.60;;;;;;;21.32;53.32;101059.25;5066628;28;20482;-70
2021/10/04 00:20:49;;;;;;;3.85;2.55;;;;;;;21.30;53.53;101053.34;5051339;28;20129;-70
2021/10/04 00:23:15;;;;;;;3.67;2.35;;;;;;;21.29;53.35;101061.47;5064015;28;20055;-70
2021/10/04 00:25:40;;;;;;;4.70;2.70;;;;;;;21.31;53.26;101072.69;5065827;28;20048;-70
2021/10/04 00:28:06;;;;;;;4.55;2.88;;;;;;;21.28;53.54;101079.19;5065189;28;20047;-70
2021/10/04 00:30:31;;;;;;;2.80;2.50;;;;;;;21.30;53.34;101082.47;5064513;28;20040;-69
2021/10/04 00:32:57;;;;;;;4.38;2.50;;;;;;;21.20;53.42;101066.03;5067088;28;20040;-71
2021/10/04 00:35:24;;;;;;;4.60;2.50;;;;;;;21.29;53.40;101080.81;5065540;28;20032;-70
2021/10/04 00:37:51;;;;;;;5.35;2.70;;;;;;;21.26;53.59;101080.38;5066705;28;20090;-70
2021/10/04 00:40:24;;;;;;;3.90;2.58;;;;;;;21.28;53.34;101079.19;5063691;28;20481;-70
2021/10/04 00:42:50;;;;;;;3.60;2.42;;;;;;;21.33;53.15;101083.94;5067189;28;20041;-71
2021/10/04 00:45:17;;;;;;;5.95;2.70;;;;;;;21.28;53.59;101068.59;5069067;28;20095;-71
2021/10/04 00:47:42;;;;;;;4.15;2.70;;;;;;;21.26;53.27;101067.94;5049194;28;20044;-71
2021/10/04 00:50:10;;;;;;;3.22;2.47;;;;;;;21.19;53.50;101074.16;5065666;28;20044;-71
2021/10/04 00:52:36;;;;;;;3.53;2.15;;;;;;;21.28;53.39;101078.38;5067199;28;20052;-71
2021/10/04 00:55:04;;;;;;;3.30;2.38;;;;;;;21.27;53.36;101088.13;5066264;28;20032;-71
2021/10/04 00:57:29;;;;;;;3.65;2.30;;;;;;;21.27;53.53;101103.22;5067015;28;20044;-71
2021/10/04 00:59:55;;;;;;;3.40;2.30;;;;;;;21.18;53.62;101096.31;5066772;28;20052;-71
2021/10/04 01:02:21;;;;;;;6.07;2.33;;;;;;;21.25;53.35;101099.91;5065091;28;20044;-71
2021/10/04 01:04:46;;;;;;;4.68;2.65;;;;;;;21.28;53.21;101102.19;5066582;28;20055;-71
2021/10/04 01:07:12;;;;;;;4.07;2.67;;;;;;;21.24;53.62;101109.69;5065731;28;20110;-72
2021/10/04 01:09:38;;;;;;;3.85;2.50;;;;;;;21.20;53.50;101096.97;5066206;28;20478;-72
2021/10/04 01:12:04;;;;;;;3.45;2.47;;;;;;;21.26;53.57;101102.38;5065341;28;20086;-71
2021/10/04 01:14:30;;;;;;;3.67;2.63;;;;;;;21.25;53.30;101102.56;5066799;28;20474;-70
2021/10/04 01:16:55;;;;;;;6.35;2.20;;;;;;;21.25;53.27;101099.91;5069179;28;20035;-71
2021/10/04 01:19:21;;;;;;;4.43;2.38;;;;;;;21.24;53.17;101108.84;5071277;28;20068;-71
2021/10/04 01:21:47;;;;;;;4.13;2.33;;;;;;;21.23;53.45;101113.31;5067731;28;20103;-71
2021/10/04 01:24:14;;;;;;;4.20;2.40;;;;;;;21.23;53.45;101110.66;5069538;28;20071;-71
2021/10/04 01:26:39;;;;;;;3.50;2.20;;;;;;;21.24;53.49;101125.59;5069214;28;20063;-70
2021/10/04 01:29:06;;;;;;;3.90;2.85;;;;;;;21.20;53.18;101120.81;5068509;28;20041;-71
2021/10/04 01:31:31;;;;;;;3.28;2.60;;;;;;;21.23;53.58;101125.75;5067333;28;20036;-71
2021/10/04 01:33:57;;;;;;;4.18;2.83;;;;;;;21.21;53.57;101133.06;5068878;28;20039;-71
2021/10/04 01:36:25;;;;;;;5.72;2.92;;;;;;;21.25;53.28;101144.94;5072247;28;20149;-71
2021/10/04 01:38:52;;;;;;;5.18;2.63;;;;;;;21.18;53.37;101146.63;5066414;28;20036;-71
2021/10/04 01:41:18;;;;;;;5.13;2.67;;;;;;;21.17;53.61;101151.09;5066634;28;20041;-71
2021/10/04 01:43:43;;;;;;;3.15;2.33;;;;;;;21.16;53.51;101151.28;5073621;28;20039;-71
2021/10/04 01:46:09;;;;;;;3.83;2.60;;;;;;;21.19;53.48;101151.78;5070094;28;20573;-70
2021/10/04 01:48:35;;;;;;;4.70;2.63;;;;;;;21.18;53.32;101146.63;5069125;28;20032;-71
2021/10/04 01:51:00;;;;;;;5.57;2.88;;;;;;;21.19;53.39;101145.66;5072385;28;20118;-71
2021/10/04 01:53:26;;;;;;;3.72;2.83;;;;;;;21.20;53.39;101156.06;5072592;28;20044;-71
2021/10/04 01:55:51;;;;;;;3.63;2.63;;;;;;;21.17;53.18;101151.09;5065698;28;20337;-71
2021/10/04 01:58:17;;;;;;;4.53;2.58;;;;;;;21.21;53.14;101155.06;5068534;28;20806;-71
2021/10/04 02:00:43;;;;;;;3.63;2.30;;;;;;;21.13;53.53;101141.88;5070187;28;20084;-70
2021/10/04 02:03:09;;;;;;;3.35;2.47;;;;;;;21.15;53.48;101149.63;5070395;28;20032;-71
2021/10/04 02:05:34;;;;;;;4.85;2.40;;;;;;;21.18;53.26;101160.69;5068337;28;20097;-72
2021/10/04 02:08:01;;;;;;;3.25;2.25;;;;;;;21.15;53.52;101158.41;5070679;28;20074;-71
2021/10/04 02:10:31;;;;;;;2.78;2.20;;;;;;;21.18;53.09;101162.50;5069166;28;20032;-71
2021/10/04 02:12:57;;;;;;;3.58;2.67;;;;;;;21.16;53.30;101169.81;5068703;28;20040;-71
2021/10/04 02:15:23;;;;;;;4.38;2.50;;;;;;;21.15;53.16;101174.28;5070214;28;20045;-70
2021/10/04 02:17:49;;;;;;;3.45;2.50;;;;;;;21.17;53.52;101158.22;5068655;28;20529;-71
2021/10/04 02:20:20;;;;;;;3.75;2.40;;;;;;;21.17;53.08;101166.16;5073921;28;20040;-71
2021/10/04 02:22:47;;;;;;;4.43;2.63;;;;;;;21.18;53.14;101165.16;5071190;28;20036;-71
2021/10/04 02:25:13;;;;;;;4.32;2.60;;;;;;;21.13;53.28;101165.72;5065655;28;20059;-71
2021/10/04 02:27:40;;;;;;;3.88;2.75;;;;;;;21.10;53.49;101164.25;5066707;28;20079;-71
2021/10/04 02:30:09;;;;;;;4.65;2.47;;;;;;;21.13;53.43;101174.47;5066979;28;20492;-71
2021/10/04 02:32:35;;;;;;;3.72;2.55;;;;;;;21.09;53.28;101170.56;5070462;28;20448;-71
2021/10/04 02:35:00;;;;;;;4.18;2.38;;;;;;;21.14;53.32;101172.66;5069106;28;20028;-71
2021/10/04 02:37:26;;;;;;;3.67;2.42;;;;;;;21.11;53.37;101168.53;5070275;28;20048;-71
2021/10/04 02:39:52;;;;;;;4.43;2.65;;;;;;;21.10;53.56;101164.25;5069245;28;20037;-71
2021/10/04 02:42:17;;;;;;;4.63;2.60;;;;;;;21.06;53.45;101164.78;5065520;28;20032;-71
2021/10/04 02:44:43;;;;;;;3.85;2.45;;;;;;;21.12;53.58;101172.00;5069692;28;20437;-71
2021/10/04 02:47:08;;;;;;;4.20;2.60;;;;;;;21.10;53.31;101174.03;5069902;28;20064;-71
2021/10/04 02:49:34;;;;;;;3.10;2.47;;;;;;;21.11;53.18;101175.66;5071526;28;20051;-71
2021/10/04 02:51:59;;;;;;;3.85;2.35;;;;;;;21.09;53.50;101186.44;5065887;28;20040;-72
2021/10/04 02:54:25;;;;;;;8.32;2.83;;;;;;;21.10;53.50;101176.66;5067827;28;20070;-69
2021/10/04 02:56:50;;;;;;;4.88;2.60;;;;;;;21.10;53.24;101176.66;5072159;28;20051;-70
2021/10/04 02:59:16;;;;;;;4.50;2.50;;;;;;;21.09;53.38;101182.97;5069424;28;20414;-70
2021/10/04 03:01:42;;;;;;;2.88;1.90;;;;;;;21.11;53.14;101189.72;5070879;28;20044;-70
2021/10/04 03:04:08;;;;;;;3.53;2.65;;;;;;;21.09;53.17;101188.25;5066129;28;20029;-70
2021/10/04 03:06:34;;;;;;;3.40;2.22;;;;;;;21.06;53.33;101183.34;5070390;28;20032;-72
2021/10/04 03:08:59;;;;;;;3.90;2.30;;;;;;;21.08;53.43;101179.50;5071340;28;20782;-73
2021/10/04 03:11:25;;;;;;;3.60;2.42;;;;;;;21.08;53.27;101174.19;5069891;28;20073;-71
2021/10/04 03:13:50;;;;;;;3.83;2.15;;;;;;;21.06;53.39;101178.84;5066728;28;20475;-71
2021/10/04 03:16:16;;;;;;;5.95;2.47;;;;;;;21.05;53.17;101177.22;5067042;28;20056;-70
2021/10/04 03:18:41;;;;;;;4.70;2.55;;;;;;;21.07;53.37;101180.50;5068912;28;20051;-71
2021/10/04 03:21:07;;;;;;;2.90;2.30;;;;;;;21.05;53.21;101179.03;5068323;28;20040;-70
2021/10/04 03:23:32;;;;;;;3.70;2.47;;;;;;;21.05;53.19;101184.34;5068483;28;20399;-71
2021/10/04 03:25:58;;;;;;;4.50;2.40;;;;;;;21.03;53.30;101184.50;5051341;28;20037;-71
2021/10/04 03:28:24;;;;;;;5.22;2.45;;;;;;;21.07;53.22;101184.97;5068175;28;20036;-71
2021/10/04 03:30:49;;;;;;;3.90;2.58;;;;;;;21.02;53.42;101176.75;5069312;28;20068;-70
2021/10/04 03:33:16;;;;;;;3.92;2.28;;;;;;;21.08;53.21;101200.69;5066663;28;20098;-71
2021/10/04 03:35:42;;;;;;;3.33;2.30;;;;;;;21.02;53.40;101190.00;5071253;28;20035;-71
2021/10/04 03:38:08;;;;;;;4.85;2.40;;;;;;;21.03;53.29;101189.81;5068376;28;20050;-71
2021/10/04 03:40:33;;;;;;;5.25;2.55;;;;;;;21.03;53.28;101192.47;5070191;28;20141;-71
2021/10/04 03:42:59;;;;;;;2.40;1.83;;;;;;;21.04;53.09;101194.09;5068606;28;20047;-71
2021/10/04 03:45:25;;;;;;;3.53;2.20;;;;;;;21.02;53.34;101198.75;5067769;28;20044;-71
2021/10/04 03:47:50;;;;;;;3.28;2.30;;;;;;;21.06;53.18;101201.88;5053871;28;20039;-71
2021/10/04 03:50:17;;;;;;;3.20;2.15;;;;;;;21.04;53.31;101201.22;5069498;28;20032;-71
2021/10/04 03:52:43;;;;;;;2.90;2.30;;;;;;;21.03;53.40;101210.16;5069107;28;20063;-71
2021/10/04 03:55:10;;;;;;;3.67;2.15;;;;;;;21.00;53.24;101205.22;5069048;28;20032;-70
2021/10/04 03:57:38;;;;;;;4.80;2.65;;;;;;;20.99;53.28;101207.03;5070003;28;20492;-71
2021/10/04 04:00:09;;;;;;;3.70;2.20;;;;;;;20.99;53.29;101214.97;5050009;28;20106;-71
2021/10/04 04:02:34;;;;;;;3.40;2.10;;;;;;;21.01;53.12;101218.28;5063753;28;20029;-71
2021/10/04 04:05:00;;;;;;;2.90;2.17;;;;;;;21.02;53.34;101212.00;5067032;28;20040;-71
2021/10/04 04:07:26;;;;;;;2.72;2.20;;;;;;;21.04;53.12;101220.59;5066136;28;20075;-71
2021/10/04 04:09:51;;;;;;;2.75;2.03;;;;;;;21.04;53.09;101217.94;5066461;28;20029;-71
2021/10/04 04:12:17;;;;;;;4.43;2.53;;;;;;;21.07;53.07;101219.41;5067022;28;20028;-71
2021/10/04 04:14:42;;;;;;;5.20;2.50;;;;;;;21.10;53.11;101224.34;5066764;28;20529;-71
2021/10/04 04:17:08;;;;;;;3.10;2.63;;;;;;;21.20;52.93;101230.22;5067781;28;20382;-71
2021/10/04 04:19:33;;;;;;;3.33;2.40;;;;;;;21.30;52.80;101230.81;5066426;28;20055;-71
2021/10/04 04:21:59;;;;;;;3.45;1.98;;;;;;;21.44;52.37;101231.03;5066693;28;20037;-71
2021/10/04 04:24:24;;;;;;;3.25;2.17;;;;;;;21.44;52.37;101228.38;5069028;28;20465;-71
2021/10/04 04:26:53;;;;;;;3.03;1.85;;;;;;;21.49;52.35;101234.75;5069377;28;20390;-71
2021/10/04 04:29:18;;;;;;;4.05;2.53;;;;;;;21.62;52.04;101242.91;5069852;28;20025;-72
2021/10/04 04:31:44;;;;;;;3.17;2.13;;;;;;;21.74;51.58;101235.34;5067087;28;20482;-71
2021/10/04 04:34:10;;;;;;;4.78;2.20;;;;;;;21.94;51.70;101240.94;5065995;28;20680;-71
2021/10/04 04:36:35;;;;;;;3.20;2.10;;;;;;;22.09;51.09;101246.25;5065890;28;20051;-71
2021/10/04 04:39:01;;;;;;;2.92;2.10;;;;;;;22.34;50.45;101233.50;5050759;28;20584;-71
2021/10/04 04:41:27;;;;;;;3.13;2.15;;;;;;;22.39;50.43;101225.78;5050113;28;20039;-71
2021/10/04 04:43:53;;;;;;;3.15;2.13;;;;;;;22.45;50.24;101240.97;5065370;28;20386;-72
2021/10/04 04:46:18;;;;;;;2.97;1.90;;;;;;;22.47;50.50;101239.78;5067171;28;20125;-73
2021/10/04 04:48:44;;;;;;;3.63;1.90;;;;;;;22.27;50.68;101247.50;5067933;28;20063;-71
2021/10/04 04:51:09;;;;;;;2.25;1.83;;;;;;;22.11;51.23;101260.16;5069973;28;20048;-71
2021/10/04 04:53:35;;;;;;;4.20;1.70;;;;;;;21.97;51.80;101254.63;5070071;28;20037;-71
2021/10/04 04:56:00;;;;;;;2.53;1.90;;;;;;;21.90;52.07;101248.44;5071440;28;20039;-71
2021/10/04 04:58:26;;;;;;;3.50;2.05;;;;;;;21.90;51.92;101266.13;5070633;28;20053;-71
2021/10/04 05:00:52;;;;;;;4.65;2.50;;;;;;;21.91;51.82;101281.91;5071188;28;20055;-70
2021/10/04 05:03:18;;;;;;;5.38;2.20;;;;;;;21.93;51.82;101287.84;5069424;28;20035;-71
2021/10/04 05:05:44;;;;;;;3.08;2.15;;;;;;;21.91;52.10;101281.91;5069076;28;21395;-71
2021/10/04 05:08:10;;;;;;;2.50;1.85;;;;;;;21.90;52.14;101296.16;5073053;28;20052;-71
2021/10/04 05:10:35;;;;;;;4.55;2.28;;;;;;;21.91;51.95;101291.69;5073536;28;20086;-70
2021/10/04 05:13:01;;;;;;;4.60;2.25;;;;;;;21.88;52.13;101290.19;5073060;28;20063;-71
2021/10/04 05:15:26;;;;;;;3.47;2.25;;;;;;;21.85;52.07;101285.25;5074399;28;20698;-71
2021/10/04 05:17:52;;;;;;;3.30;1.83;;;;;;;21.80;52.11;101279.69;5071417;28;20114;-71
2021/10/04 05:20:17;;;;;;;2.50;2.00;;;;;;;21.79;52.16;101275.38;5071090;28;20028;-71
2021/10/04 05:22:43;;;;;;;2.05;1.70;;;;;;;21.76;52.20;101282.88;5053968;28;20049;-71
2021/10/04 05:25:10;;;;;;;2.30;1.73;;;;;;;21.70;52.69;101285.22;5070137;28;20048;-71
2021/10/04 05:27:36;;;;;;;3.83;2.63;;;;;;;21.69;52.62;101296.84;5069822;28;20122;-71
2021/10/04 05:30:03;;;;;;;3.28;2.03;;;;;;;21.70;52.32;101287.88;5070804;28;20024;-71
2021/10/04 05:32:28;;;;;;;2.20;1.90;;;;;;;21.69;52.25;101283.59;5070224;28;20076;-71
2021/10/04 05:34:54;;;;;;;3.28;2.10;;;;;;;21.56;52.78;101285.22;5069035;28;20471;-71
2021/10/04 05:37:20;;;;;;;2.50;1.73;;;;;;;21.65;52.73;101300.88;5070597;28;20029;-71
2021/10/04 05:39:46;;;;;;;4.78;1.80;;;;;;;21.66;52.67;101285.78;5054639;28;20497;-70
2021/10/04 05:42:11;;;;;;;3.63;2.00;;;;;;;21.63;52.58;101296.75;5070710;28;20028;-71
2021/10/04 05:44:37;;;;;;;2.83;1.70;;;;;;;21.60;52.47;101303.25;5073901;28;20055;-71
2021/10/04 05:47:02;;;;;;;3.63;1.80;;;;;;;21.62;52.45;101311.81;5053233;28;20125;-71
2021/10/04 05:49:28;;;;;;;3.58;1.95;;;;;;;21.58;52.84;101310.53;5070744;28;20043;-71
2021/10/04 05:51:54;;;;;;;2.30;1.80;;;;;;;21.59;52.50;101303.41;5069709;28;20044;-71
2021/10/04 05:54:23;;;;;;;2.88;1.80;;;;;;;21.59;52.47;101317.50;5070838;28;20039;-71
2021/10/04 05:56:49;;;;;;;2.08;1.77;;;;;;;21.54;52.58;101319.00;5069732;28;20036;-71
2021/10/04 05:59:14;;;;;;;2.60;1.80;;;;;;;21.55;52.84;101326.00;5067022;28;20097;-71
2021/10/04 06:01:40;;;;;;;2.50;1.88;;;;;;;21.56;52.82;101327.63;5072269;28;20046;-72
2021/10/04 06:04:05;;;;;;;3.78;2.00;;;;;;;21.55;52.49;101326.81;5067796;28;20098;-71
2021/10/04 06:06:31;;;;;;;2.88;2.05;;;;;;;21.54;52.58;101313.72;5070964;28;20345;-71
2021/10/04 06:08:56;;;;;;;2.47;1.75;;;;;;;21.49;52.62;101324.03;5069910;28;20402;-71
2021/10/04 06:11:23;;;;;;;2.70;1.90;;;;;;;21.56;52.24;101333.75;5068290;28;20593;-71
2021/10/04 06:13:49;;;;;;;4.30;2.10;;;;;;;21.53;52.36;101327.97;5072272;28;20036;-71
2021/10/04 06:16:14;;;;;;;2.95;1.80;;;;;;;21.48;52.61;101333.81;5068870;28;20032;-71
2021/10/04 06:18:40;;;;;;;5.13;2.13;;;;;;;21.56;52.61;101330.28;5070178;28;20504;-71
2021/10/04 06:21:06;;;;;;;5.38;1.70;;;;;;;21.52;52.37;101303.28;5069230;28;20104;-71
2021/10/04 06:23:31;;;;;;;2.63;1.75;;;;;;;21.76;51.99;101346.50;5068497;28;21036;-71
2021/10/04 06:25:57;;;;;;;3.30;1.90;;;;;;;21.79;51.86;101348.78;5072957;28;20025;-71
2021/10/04 06:28:23;;;;;;;3.83;1.90;;;;;;;21.79;51.75;101356.75;5069711;28;20075;-71
2021/10/04 06:30:48;;;;;;;2.30;1.70;;;;;;;21.75;52.05;101355.47;5070117;28;20086;-71
2021/10/04 06:33:14;;;;;;;4.75;1.77;;;;;;;21.76;51.96;101357.94;5069748;28;20040;-71
2021/10/04 06:35:39;;;;;;;2.40;1.67;;;;;;;21.71;52.45;101355.78;5055931;28;20039;-71
2021/10/04 06:38:05;;;;;;;3.38;1.90;;;;;;;21.68;52.28;101361.47;5053634;28;20037;-71
2021/10/04 06:40:30;;;;;;;3.30;1.75;;;;;;;21.63;52.20;101352.41;5069210;28;20045;-71
2021/10/04 06:42:56;;;;;;;2.55;1.95;;;;;;;21.60;52.38;101361.53;5072398;28;20048;-71
2021/10/04 06:45:23;;;;;;;3.95;2.03;;;;;;;21.66;52.12;101366.13;5068177;28;20036;-71
2021/10/04 06:47:48;;;;;;;2.50;1.80;;;;;;;21.79;52.01;101360.22;5068529;28;20042;-71
2021/10/04 06:50:15;;;;;;;4.88;1.73;;;;;;;21.86;51.63;101373.56;5069812;28;20040;-71
2021/10/04 06:52:41;;;;;;;3.38;1.90;;;;;;;21.82;51.70;101382.88;5068468;28;20108;-71
2021/10/04 06:55:09;;;;;;;2.13;1.65;;;;;;;21.83;51.84;101384.53;5069147;28;20106;-70
2021/10/04 06:57:36;;;;;;;3.60;1.50;;;;;;;21.79;51.89;101384.06;5069786;28;20032;-70
2021/10/04 07:00:08;;;;;;;2.40;1.73;;;;;;;21.71;52.16;101379.66;5068922;28;20045;-70
2021/10/04 07:02:33;;;;;;;2.72;1.83;;;;;;;21.70;52.00;101396.56;5069639;28;20130;-70
2021/10/04 07:05:00;;;;;;;3.58;1.55;;;;;;;21.65;52.50;101392.81;5069830;28;20513;-70
2021/10/04 07:07:26;;;;;;;2.42;1.95;;;;;;;21.68;52.56;101398.56;5070019;28;20041;-70
2021/10/04 07:09:52;;;;;;;2.15;1.75;;;;;;;21.70;52.00;101415.09;5064443;28;20037;-70
2021/10/04 07:12:17;;;;;;;2.78;1.92;;;;;;;21.73;52.00;101405.19;5072417;28;20074;-70
2021/10/04 07:14:43;;;;;;;3.25;1.92;;;;;;;21.79;52.08;101418.53;5072350;28;20067;-70
2021/10/04 07:17:08;;;;;;;1.88;1.50;;;;;;;21.79;51.88;101413.25;5071435;28;20387;-70
2021/10/04 07:19:34;;;;;;;2.08;1.50;;;;;;;21.76;52.08;101421.56;5065811;28;20041;-71
2021/10/04 07:22:00;;;;;;;2.45;1.52;;;;;;;21.70;52.27;101417.75;5071142;28;20101;-71
2021/10/04 07:24:26;;;;;;;3.17;1.65;;;;;;;21.69;52.05;101436.50;5073637;28;20044;-71
2021/10/04 07:26:52;;;;;;;4.60;1.90;;;;;;;21.65;52.51;101443.97;5072923;28;20501;-71
2021/10/04 07:29:19;;;;;;;2.35;1.60;;;;;;;21.69;52.46;101457.69;5068253;28;20036;-71
2021/10/04 07:31:45;;;;;;;1.92;1.60;;;;;;;21.64;52.33;101455.59;5069944;28;20493;-71
2021/10/04 07:34:10;;;;;;;2.30;1.80;;;;;;;21.64;52.50;101444.16;5069923;28;20048;-71
2021/10/04 07:36:36;;;;;;;3.17;1.90;;;;;;;21.59;52.34;101447.34;5068498;28;20114;-71
2021/10/04 07:39:05;;;;;;;2.78;1.75;;;;;;;21.60;52.35;101448.19;5069446;28;20040;-70
2021/10/04 07:41:30;;;;;;;1.77;1.60;;;;;;;21.64;52.24;101439.69;5063797;28;20111;-70
2021/10/04 07:43:56;;;;;;;2.22;1.88;;;;;;;21.63;52.00;101442.50;5065920;28;20165;-70
2021/10/04 07:46:21;;;;;;;2.22;1.50;;;;;;;21.64;52.09;101441.50;5066888;28;20040;-69
2021/10/04 07:48:47;;;;;;;2.22;1.73;;;;;;;21.61;52.29;101436.56;5067531;28;20044;-70
2021/10/04 07:51:15;;;;;;;3.30;1.80;;;;;;;21.59;52.27;101434.09;5067986;28;20043;-70
2021/10/04 07:53:41;;;;;;;3.60;1.70;;;;;;;21.54;52.68;101428.47;5069759;28;20045;-69
2021/10/04 07:56:07;;;;;;;2.20;1.67;;;;;;;21.62;52.37;101440.88;5066506;28;20390;-69
2021/10/04 07:58:33;;;;;;;5.57;3.17;;;;;;;21.58;52.74;101445.69;5069995;28;20060;-69
2021/10/04 08:00:58;;;;;;;2.47;1.90;;;;;;;21.59;52.33;101447.34;5069181;28;20076;-71
2021/10/04 08:03:24;;;;;;;4.80;1.75;;;;;;;21.57;52.54;101453.84;5062601;28;20044;-71
2021/10/04 08:05:49;;;;;;;3.13;1.98;;;;;;;21.58;52.38;101456.31;5054085;28;20040;-70
2021/10/04 08:08:15;;;;;;;3.53;2.15;;;;;;;21.60;52.62;101453.47;5066218;28;20028;-70
2021/10/04 08:10:40;;;;;;;2.70;2.13;;;;;;;21.59;52.34;101457.94;5064116;28;20101;-70
2021/10/04 08:13:06;;;;;;;5.78;1.90;;;;;;;21.56;52.58;101460.13;5067360;28;20041;-70
2021/10/04 08:15:32;;;;;;;4.10;1.80;;;;;;;21.56;52.91;101455.66;5062795;28;20045;-70
2021/10/04 08:17:58;;;;;;;3.00;2.08;;;;;;;21.59;52.47;101457.13;5059047;28;20039;-70
2021/10/04 08:20:24;;;;;;;4.38;2.00;;;;;;;21.54;52.70;101454.97;5062944;28;20040;-70
2021/10/04 08:22:51;;;;;;;2.97;2.00;;;;;;;21.51;52.58;101449.22;5067005;28;20080;-70
2021/10/04 08:25:17;;;;;;;4.45;2.03;;;;;;;21.53;52.68;101442.72;5065740;28;20069;-70
2021/10/04 08:27:43;;;;;;;4.35;2.13;;;;;;;21.54;52.68;101447.03;5065985;28;20520;-70
2021/10/04 08:30:10;;;;;;;3.80;1.90;;;;;;;21.55;52.37;101455.84;5066968;28;20028;-70
2021/10/04 08:32:36;;;;;;;3.95;1.77;;;;;;;21.60;52.43;101456.13;5070330;28;20058;-69
2021/10/04 08:35:04;;;;;;;4.38;1.90;;;;;;;21.66;52.48;101458.06;5065451;28;20199;-68
2021/10/04 08:37:32;;;;;;;3.95;1.65;;;;;;;21.74;51.98;101460.66;5071624;28;20093;-69
2021/10/04 08:40:05;;;;;;;2.83;2.10;;;;;;;21.75;51.95;101456.19;5063140;28;20040;-69
2021/10/04 08:42:31;;;;;;;2.38;1.70;;;;;;;21.76;52.21;101456.00;5067830;28;20028;-69
2021/10/04 08:44:58;;;;;;;3.70;1.92;;;;;;;21.76;52.27;101460.50;5044691;28;20426;-68
2021/10/04 08:47:23;;;;;;;3.60;1.92;;;;;;;21.71;52.21;101456.53;5066612;28;20083;-68
2021/10/04 08:49:52;;;;;;;3.08;1.73;;;;;;;21.73;52.42;101461.69;5067780;28;20690;-69
2021/10/04 08:52:19;;;;;;;2.20;1.52;;;;;;;21.65;52.54;101461.72;5067167;28;20852;-69
2021/10/04 08:54:46;;;;;;;2.75;2.17;;;;;;;21.69;52.39;101461.19;5070638;28;20040;-69
2021/10/04 08:57:11;;;;;;;2.88;1.73;;;;;;;21.68;52.09;101446.28;5066960;28;20512;-70
2021/10/04 08:59:37;;;;;;;3.88;1.92;;;;;;;21.82;51.93;101457.13;5063661;28;20057;-70
2021/10/04 09:02:22;;;;;;;2.58;1.85;;;;;;;21.93;52.01;101459.38;5068968;28;20472;-69
2021/10/04 09:05:06;;;;;;;1.83;1.23;;;;;;;21.97;51.68;101456.16;5081933;28;20040;-69
2021/10/04 09:07:43;;;;;;;3.13;1.90;;;;;;;21.93;51.93;101451.41;5067236;28;20628;-70
2021/10/04 09:10:11;;;;;;;3.45;2.00;;;;;;;21.89;52.21;101455.41;5069919;28;20051;-70
2021/10/04 09:12:46;;;;;;;1.95;1.73;;;;;;;21.89;51.93;101469.47;5066800;28;20024;-70
2021/10/04 09:15:44;;;;;;;6.03;2.00;;;;;;;21.88;52.09;101464.34;5063801;28;20047;-71
2021/10/04 09:18:15;;;;;;;3.53;1.92;;;;;;;21.85;51.90;101470.84;5047795;28;20119;-71
2021/10/04 09:20:46;;;;;;;1.88;1.60;;;;;;;21.83;51.98;101478.16;5067636;28;20530;-71
2021/10/04 09:23:44;;;;;;;2.45;1.70;;;;;;;21.76;51.84;101455.19;5067080;28;20039;-70
2021/10/04 09:26:11;;;;;;;1.85;1.50;;;;;;;21.79;51.87;101463.59;5065608;28;20036;-76
2021/10/04 09:28:39;;;;;;;3.67;1.60;;;;;;;21.68;52.59;101461.34;5064621;28;20040;-73
2021/10/04 09:31:25;;;;;;;2.20;1.48;;;;;;;21.68;52.64;101464.00;5064913;28;20063;-75
2021/10/04 09:34:00;;;;;;;4.25;2.25;;;;;;;21.67;52.48;101467.66;5059584;28;20039;-74
2021/10/04 09:36:30;;;;;;;3.65;1.60;;;;;;;21.62;52.37;101459.41;5067946;28;20040;-74
2021/10/04 09:39:26;;;;;;;5.90;2.15;;;;;;;21.65;52.32;101470.50;5071342;28;20032;-74
2021/10/04 09:42:05;;;;;;;3.15;1.70;;;;;;;21.63;52.16;101469.03;5056140;28;20047;-73
2021/10/04 09:44:41;;;;;;;2.05;1.60;;;;;;;21.62;52.62;101467.38;5063447;28;20490;-74
2021/10/04 09:47:25;;;;;;;2.22;1.70;;;;;;;21.61;52.77;101465.72;5070461;28;20035;-74
2021/10/04 09:49:52;;;;;;;2.83;1.60;;;;;;;21.64;52.21;101468.84;5073544;28;20040;-74
2021/10/04 09:52:18;;;;;;;3.42;1.85;;;;;;;21.56;52.40;101452.19;5061920;28;20033;-74
2021/10/04 09:54:46;;;;;;;2.97;1.90;;;;;;;21.63;52.61;101464.53;5056606;28;20052;-75
2021/10/04 09:57:20;;;;;;;2.40;1.60;;;;;;;21.63;52.59;101475.16;5079581;28;20059;-74
2021/10/04 09:59:46;;;;;;;3.38;1.95;;;;;;;21.57;52.37;101462.59;5062199;28;20098;-74
2021/10/04 10:02:14;;;;;;;2.85;1.60;;;;;;;21.62;52.17;101473.50;5078798;28;20483;-74
2021/10/04 10:04:47;;;;;;;4.07;2.00;;;;;;;21.60;52.65;101470.19;5075264;28;20120;-73
2021/10/04 10:07:13;;;;;;;2.67;2.05;;;;;;;21.51;52.39;101458.00;5062746;28;20086;-74
2021/10/04 10:09:40;;;;;;;2.20;1.65;;;;;;;21.61;52.37;101473.69;5073711;28;20056;-73
2021/10/04 10:12:09;;;;;;;2.88;1.60;;;;;;;21.60;52.38;101467.56;5089267;28;20050;-73
2021/10/04 10:14:44;;;;;;;2.63;1.70;;;;;;;21.54;52.35;101452.34;5068555;28;20086;-73
2021/10/04 10:17:20;;;;;;;2.83;1.90;;;;;;;21.53;52.76;101457.81;5073744;28;20031;-73
2021/10/04 10:19:48;;;;;;;4.85;1.95;;;;;;;21.55;52.66;101469.09;5068014;28;20120;-74
2021/10/04 10:22:17;;;;;;;1.73;1.63;;;;;;;21.61;52.20;101453.28;5060536;28;20520;-73
2021/10/04 10:24:44;;;;;;;1.92;1.65;;;;;;;21.58;52.59;101461.59;5051779;28;20546;-74
2021/10/04 10:27:11;;;;;;;2.72;1.90;;;;;;;21.53;52.31;101447.22;5075413;28;20178;-73
2021/10/04 10:29:38;;;;;;;6.35;1.90;;;;;;;21.54;52.57;101446.22;5069066;28;20872;-74
2021/10/04 10:32:07;;;;;;;4.35;2.13;;;;;;;21.56;52.35;101450.34;5069488;28;20533;-74
2021/10/04 10:34:36;;;;;;;2.60;1.70;;;;;;;21.58;52.62;101456.31;5068622;28;20500;-74
2021/10/04 10:37:15;;;;;;;5.15;2.10;;;;;;;21.59;52.55;101465.06;5083796;28;20040;-73
2021/10/04 10:39:45;;;;;;;2.88;1.70;;;;;;;21.55;52.35;101440.75;5065936;28;20046;-73
2021/10/04 10:42:28;;;;;;;2.70;1.67;;;;;;;21.55;52.64;101448.72;5076195;28;20085;-73
2021/10/04 10:44:54;;;;;;;3.10;1.50;;;;;;;21.58;52.33;101447.53;5073562;28;20134;-73
2021/10/04 10:47:38;;;;;;;3.50;1.63;;;;;;;21.55;52.52;101450.53;5076609;28;20103;-73
2021/10/04 10:50:16;;;;;;;2.38;1.67;;;;;;;21.59;52.58;101451.81;5040212;28;20117;-74
2021/10/04 10:53:03;;;;;;;4.55;1.83;;;;;;;21.44;52.55;101429.72;5056365;28;20394;-73
2021/10/04 10:55:32;;;;;;;2.47;1.73;;;;;;;21.49;52.38;101436.16;5066714;28;20036;-73
2021/10/04 10:58:01;;;;;;;1.95;1.50;;;;;;;21.56;52.26;101444.22;5069372;28;20041;-73
2021/10/04 11:00:32;;;;;;;3.65;1.50;;;;;;;21.55;52.51;101448.72;5081110;28;20074;-73
2021/10/04 11:03:09;;;;;;;2.72;1.60;;;;;;;21.54;52.46;101451.50;5057523;28;20033;-73
2021/10/04 11:05:37;;;;;;;3.65;1.60;;;;;;;21.54;52.19;101449.69;5062479;28;20086;-74
2021/10/04 11:08:47;;;;;;;4.80;2.00;;;;;;;21.51;52.62;101447.38;5067727;28;20076;-73
2021/10/04 11:11:15;;;;;;;2.03;1.50;;;;;;;21.46;52.40;101439.16;5062511;28;20044;-75
2021/10/04 11:13:56;;;;;;;3.00;1.85;;;;;;;21.51;52.77;101458.00;5064981;28;20035;-75
2021/10/04 11:16:25;;;;;;;2.65;1.70;;;;;;;21.51;52.62;101460.63;5069639;28;20105;-73
2021/10/04 11:18:53;;;;;;;1.65;1.52;;;;;;;21.56;52.50;101452.19;5052663;28;20399;-76
2021/10/04 11:21:29;;;;;;;5.75;2.20;;;;;;;21.48;52.17;101461.00;5068636;28;20085;-75
2021/10/04 11:24:04;;;;;;;3.00;1.40;;;;;;;21.51;52.11;101455.34;5070160;28;20088;-76
2021/10/04 11:26:35;;;;;;;3.75;1.70;;;;;;;21.41;52.61;101437.03;5066979;28;20029;-75